Time;durP1;ratioP1;P1;durP2;ratioP2;P2;SDS_P1;SDS_P2;PMS_P1;PMS_P2;Temp;Humidity;BMP_temperature;BMP_pressure;BME280_temperature;BME280_humidity;BME280_pressure;Samples;Min_cycle;Max_cycle;Signal;HPM_P1;HPM_P2
2022/11/14 00:01:13;;;;;;;34.13;22.30;;;;;;;10.18;73.26;95737.81;4976669;28;20198;-86
2022/11/14 00:03:43;;;;;;;35.90;24.43;;;;;;;10.17;73.11;95736.19;4976210;28;20190;-84
2022/11/14 00:06:10;;;;;;;35.73;23.97;;;;;;;10.11;73.02;95726.41;4976088;28;20194;-83
2022/11/14 00:08:38;;;;;;;33.83;23.27;;;;;;;10.13;73.11;95725.38;4974906;28;20200;-88
2022/11/14 00:11:05;;;;;;;33.27;22.87;;;;;;;10.14;72.85;95737.22;4974487;28;20201;-83
2022/11/14 00:13:32;;;;;;;33.13;22.13;;;;;;;9.83;72.82;95684.91;4975306;28;20182;-87
2022/11/14 00:15:59;;;;;;;29.63;21.37;;;;;;;10.11;72.95;95737.47;4974082;28;20665;-84
2022/11/14 00:18:27;;;;;;;32.77;21.77;;;;;;;10.12;73.02;95743.38;4974339;28;20211;-83
2022/11/14 00:20:54;;;;;;;33.87;22.33;;;;;;;10.11;72.93;95734.09;4973566;28;20329;-87
2022/11/14 00:23:21;;;;;;;31.93;21.43;;;;;;;9.67;72.88;95674.97;4973125;28;20216;-81
2022/11/14 00:25:48;;;;;;;30.97;21.00;;;;;;;10.08;72.86;95735.09;4973345;28;20198;-82
2022/11/14 00:28:15;;;;;;;33.60;22.90;;;;;;;10.07;72.78;95733.47;4973880;28;20227;-80
2022/11/14 00:30:46;;;;;;;33.63;22.93;;;;;;;10.05;72.82;95725.91;4973652;28;20197;-88
2022/11/14 00:33:13;;;;;;;32.57;21.97;;;;;;;10.05;72.78;95738.69;4974268;28;20245;-83
2022/11/14 00:35:49;;;;;;;34.53;22.83;;;;;;;10.04;72.89;95733.69;4991623;28;20249;-84
2022/11/14 00:38:16;;;;;;;33.20;21.63;;;;;;;10.02;72.85;95733.81;4975702;28;20228;-80
2022/11/14 00:40:43;;;;;;;31.47;21.77;;;;;;;9.92;72.78;95725.16;4988422;28;20252;-85
2022/11/14 00:43:09;;;;;;;32.33;20.83;;;;;;;10.00;72.74;95733.09;4993090;28;20196;-80
2022/11/14 00:45:36;;;;;;;32.63;21.10;;;;;;;10.00;72.82;95742.50;4993274;28;20193;-80
2022/11/14 00:48:03;;;;;;;31.63;21.83;;;;;;;9.98;72.81;95737.50;4992550;28;20200;-81
2022/11/14 00:50:30;;;;;;;33.93;21.93;;;;;;;9.93;72.65;95725.94;4992613;28;20197;-83
2022/11/14 00:52:58;;;;;;;30.57;19.63;;;;;;;9.98;72.87;95729.03;4992686;28;20292;-79
2022/11/14 00:55:25;;;;;;;28.40;19.97;;;;;;;9.96;72.80;95726.56;4991951;28;20197;-82
2022/11/14 00:57:52;;;;;;;33.77;21.10;;;;;;;9.95;72.95;95722.38;4992117;28;20232;-79
2022/11/14 01:00:19;;;;;;;31.23;19.80;;;;;;;9.94;72.72;95727.59;4993044;28;20287;-84
2022/11/14 01:02:46;;;;;;;28.17;18.47;;;;;;;9.94;72.62;95720.75;5003344;28;20193;-79
2022/11/14 01:05:12;;;;;;;33.27;21.07;;;;;;;9.47;72.51;95648.28;5011690;28;20207;-79
2022/11/14 01:07:39;;;;;;;30.30;20.40;;;;;;;9.91;72.58;95722.72;5013300;28;20185;-79
2022/11/14 01:10:09;;;;;;;28.17;19.07;;;;;;;9.91;72.60;95725.25;5011432;28;20188;-79
2022/11/14 01:12:37;;;;;;;26.87;19.67;;;;;;;9.86;72.70;95720.47;5013537;28;20190;-80
2022/11/14 01:15:05;;;;;;;27.77;18.77;;;;;;;9.58;72.62;95679.91;5014425;28;20184;-80
2022/11/14 01:17:32;;;;;;;26.40;17.60;;;;;;;9.66;72.62;95691.22;5013093;28;20680;-80
2022/11/14 01:19:59;;;;;;;26.57;16.93;;;;;;;9.83;72.62;95717.31;5012086;28;20196;-79
2022/11/14 01:22:26;;;;;;;26.07;18.70;;;;;;;9.85;72.66;95729.06;5011964;28;20193;-81
2022/11/14 01:24:54;;;;;;;25.60;17.93;;;;;;;9.84;72.77;95719.75;5019427;28;20200;-83
2022/11/14 01:27:22;;;;;;;30.50;18.17;;;;;;;9.80;72.72;95715.78;5018498;28;20567;-82
2022/11/14 01:29:49;;;;;;;24.80;18.03;;;;;;;9.82;72.57;95716.50;5013167;28;20200;-81
2022/11/14 01:32:15;;;;;;;24.73;17.80;;;;;;;9.28;72.49;95633.44;5013012;28;20834;-88
2022/11/14 01:34:42;;;;;;;26.90;18.47;;;;;;;9.80;72.53;95711.50;5013103;28;20195;-88
2022/11/14 01:37:09;;;;;;;27.73;17.83;;;;;;;9.75;72.72;95702.53;5011457;28;20703;-81
2022/11/14 01:39:37;;;;;;;26.20;17.87;;;;;;;9.78;72.58;95712.53;5008921;28;20235;-85
2022/11/14 01:42:04;;;;;;;25.90;17.97;;;;;;;9.72;72.57;95695.91;4992837;28;20204;-89
2022/11/14 01:44:46;;;;;;;32.27;18.83;;;;;;;9.77;72.46;95701.50;4991743;28;20199;-78
2022/11/14 01:47:16;;;;;;;28.23;18.33;;;;;;;9.75;72.38;95698.22;4991360;28;20192;-82
2022/11/14 01:49:46;;;;;;;27.70;18.63;;;;;;;9.74;72.39;95691.50;4991564;28;20633;-82
2022/11/14 01:52:18;;;;;;;24.03;16.47;;;;;;;9.65;72.50;95681.94;4993972;28;20680;-82
2022/11/14 01:54:47;;;;;;;27.70;18.80;;;;;;;9.72;72.45;95687.44;4995501;28;20189;-81
2022/11/14 01:57:20;;;;;;;34.33;20.20;;;;;;;9.56;72.55;95667.25;4987022;28;20232;-79
2022/11/14 01:59:53;;;;;;;30.63;21.00;;;;;;;9.68;72.50;95686.00;4995751;28;20283;-78
2022/11/14 02:02:22;;;;;;;33.83;22.43;;;;;;;9.68;72.56;95680.91;4995830;28;20200;-83
2022/11/14 02:04:53;;;;;;;35.37;23.37;;;;;;;9.67;72.34;95681.81;4995786;28;20189;-80
2022/11/14 02:07:20;;;;;;;34.37;23.67;;;;;;;9.54;72.56;95662.25;4995592;28;20575;-80
2022/11/14 02:09:48;;;;;;;33.23;22.17;;;;;;;9.50;72.15;95654.94;4995171;28;20193;-83
2022/11/14 02:12:19;;;;;;;38.27;23.97;;;;;;;9.55;72.43;95666.44;4994997;28;20207;-88
2022/11/14 02:14:58;;;;;;;37.60;24.90;;;;;;;9.61;72.51;95674.59;4994809;28;20197;-83
2022/11/14 02:17:26;;;;;;;37.23;24.33;;;;;;;9.60;72.61;95678.06;4994962;28;20235;-85
2022/11/14 02:20:04;;;;;;;37.30;24.30;;;;;;;9.48;72.44;95646.53;4994988;28;20680;-85
2022/11/14 02:22:30;;;;;;;39.70;26.57;;;;;;;9.40;72.68;95636.84;4994196;28;20197;-81
2022/11/14 02:24:57;;;;;;;39.83;25.97;;;;;;;9.55;72.48;95663.88;4995162;28;20201;-80
2022/11/14 02:27:24;;;;;;;40.73;27.17;;;;;;;9.55;72.60;95670.72;4999275;28;20204;-79
2022/11/14 02:29:51;;;;;;;43.83;28.30;;;;;;;9.50;72.33;95655.72;5010748;28;20694;-81
2022/11/14 02:32:18;;;;;;;43.13;28.33;;;;;;;9.53;72.39;95667.44;5001119;28;20205;-81
2022/11/14 02:34:45;;;;;;;48.47;28.40;;;;;;;9.52;72.71;95663.28;5000442;28;20193;-81
2022/11/14 02:37:13;;;;;;;43.10;28.27;;;;;;;9.32;72.39;95640.88;4999451;28;20240;-83
2022/11/14 02:39:40;;;;;;;43.90;28.97;;;;;;;9.49;72.42;95664.28;4996645;28;20244;-81
2022/11/14 02:42:10;;;;;;;45.13;30.10;;;;;;;9.49;72.39;95671.94;4995899;28;20185;-85
2022/11/14 02:44:37;;;;;;;45.40;29.87;;;;;;;9.48;72.41;95678.00;4994319;28;20245;-83
2022/11/14 02:47:04;;;;;;;48.37;29.83;;;;;;;9.48;72.04;95674.63;4994654;28;20645;-87
2022/11/14 02:49:31;;;;;;;43.40;30.00;;;;;;;9.47;72.53;95673.81;4994978;28;20203;-87
2022/11/14 02:51:59;;;;;;;48.37;31.27;;;;;;;9.45;72.22;95670.53;4995589;28;20181;-86
2022/11/14 02:54:29;;;;;;;53.47;31.93;;;;;;;9.46;72.31;95673.94;4996319;28;20280;-84
2022/11/14 02:56:56;;;;;;;44.50;29.67;;;;;;;9.44;72.24;95675.75;4998722;28;20775;-79
2022/11/14 02:59:23;;;;;;;46.47;29.60;;;;;;;9.44;72.48;95665.53;4997380;28;20221;-83
2022/11/14 03:01:49;;;;;;;50.43;32.97;;;;;;;9.39;72.31;95655.66;4999035;28;20204;-85
2022/11/14 03:04:16;;;;;;;50.00;30.77;;;;;;;9.42;72.42;95663.09;4994664;28;20186;-83
2022/11/14 03:06:43;;;;;;;50.77;32.07;;;;;;;9.38;72.23;95654.03;4994530;28;20197;-80
2022/11/14 03:09:10;;;;;;;49.00;32.20;;;;;;;9.41;72.17;95658.09;4994667;28;20289;-79
2022/11/14 03:11:38;;;;;;;43.23;30.43;;;;;;;9.23;72.10;95632.09;4994515;28;20228;-80
2022/11/14 03:14:07;;;;;;;48.30;32.30;;;;;;;9.34;72.22;95651.81;4994908;28;20661;-83
2022/11/14 03:16:34;;;;;;;48.13;31.97;;;;;;;9.39;72.15;95659.94;4993895;28;20275;-80
2022/11/14 03:19:01;;;;;;;45.67;30.97;;;;;;;9.27;71.93;95647.09;4993886;28;20213;-82
2022/11/14 03:21:28;;;;;;;52.07;32.23;;;;;;;9.19;72.23;95633.25;4993749;28;20204;-84
2022/11/14 03:23:55;;;;;;;48.03;31.70;;;;;;;9.30;71.98;95644.34;4993510;28;20676;-80
2022/11/14 03:26:22;;;;;;;52.43;32.23;;;;;;;9.34;72.21;95651.81;4993906;28;20197;-83
2022/11/14 03:28:50;;;;;;;45.67;31.43;;;;;;;9.28;72.00;95647.91;4993786;28;20193;-86
2022/11/14 03:31:17;;;;;;;46.93;30.97;;;;;;;9.27;72.11;95648.84;4993474;28;20181;-86
2022/11/14 03:33:43;;;;;;;47.70;30.37;;;;;;;9.25;71.88;95645.59;4993315;28;20204;-86
2022/11/14 03:36:10;;;;;;;48.43;32.73;;;;;;;9.28;72.34;95651.31;4993701;28;20189;-82
2022/11/14 03:38:37;;;;;;;47.20;31.90;;;;;;;9.29;71.89;95654.69;4993034;28;20232;-80
2022/11/14 03:41:04;;;;;;;46.17;31.60;;;;;;;9.27;72.29;95654.75;4992838;28;20240;-82
2022/11/14 03:43:32;;;;;;;46.73;31.57;;;;;;;9.18;71.99;95639.28;4993349;28;20228;-79
2022/11/14 03:46:01;;;;;;;47.40;31.20;;;;;;;9.24;71.88;95651.59;4993390;28;20201;-82
2022/11/14 03:48:28;;;;;;;50.50;33.43;;;;;;;9.24;71.66;95659.25;4992996;28;20229;-80
2022/11/14 03:50:55;;;;;;;48.77;31.93;;;;;;;9.22;71.84;95656.00;4992896;28;20193;-83
2022/11/14 03:53:22;;;;;;;49.30;33.20;;;;;;;9.13;71.88;95646.44;4992852;28;20189;-82
2022/11/14 03:55:49;;;;;;;45.47;31.43;;;;;;;9.16;71.93;95654.69;4993131;28;20671;-86
2022/11/14 03:58:16;;;;;;;46.57;31.53;;;;;;;9.18;71.79;95660.50;4993208;28;20201;-87
2022/11/14 04:00:43;;;;;;;48.40;31.93;;;;;;;8.87;71.91;95604.84;4993598;28;20193;-83
2022/11/14 04:03:11;;;;;;;47.23;31.70;;;;;;;9.14;71.76;95650.59;4993099;28;20189;-83
2022/11/14 04:05:38;;;;;;;48.67;31.67;;;;;;;9.15;71.72;95647.94;4993050;28;20212;-83
2022/11/14 04:08:05;;;;;;;46.20;30.33;;;;;;;9.13;71.37;95646.44;4992942;28;20220;-84
2022/11/14 04:10:32;;;;;;;47.97;30.90;;;;;;;9.13;71.47;95643.88;4992908;28;20193;-81
2022/11/14 04:12:59;;;;;;;48.83;31.00;;;;;;;9.15;71.61;95655.59;4992085;28;20251;-87
2022/11/14 04:15:27;;;;;;;52.13;31.03;;;;;;;9.15;71.73;95654.78;4992256;28;20200;-85
2022/11/14 04:17:53;;;;;;;48.23;31.87;;;;;;;9.14;71.52;95655.72;4993842;28;20200;-82
2022/11/14 04:20:22;;;;;;;50.57;32.30;;;;;;;9.13;71.56;95651.53;4994436;28;20636;-82
2022/11/14 04:22:48;;;;;;;41.33;28.67;;;;;;;9.12;71.43;95647.34;5012559;28;20185;-79
2022/11/14 04:25:15;;;;;;;44.50;29.87;;;;;;;9.12;71.42;95652.47;4999516;28;20197;-80
2022/11/14 04:27:43;;;;;;;42.93;30.97;;;;;;;9.12;71.44;95649.91;4994336;28;20213;-82
2022/11/14 04:30:11;;;;;;;50.37;32.10;;;;;;;9.10;71.51;95644.91;4997187;28;20216;-81
2022/11/14 04:32:37;;;;;;;46.00;30.33;;;;;;;9.02;71.43;95631.84;4998591;28;20188;-77
2022/11/14 04:35:05;;;;;;;45.00;29.60;;;;;;;9.09;71.34;95650.13;4998662;28;20204;-81
2022/11/14 04:37:33;;;;;;;47.00;29.97;;;;;;;9.08;71.35;95643.38;4998881;28;20692;-78
2022/11/14 04:40:01;;;;;;;45.17;30.47;;;;;;;9.07;71.22;95646.84;4996072;28;20224;-76
2022/11/14 04:42:28;;;;;;;52.10;30.97;;;;;;;9.07;71.22;95644.28;4972740;28;20280;-80
2022/11/14 04:44:55;;;;;;;50.13;29.87;;;;;;;9.03;71.25;95638.59;4972208;28;20272;-78
2022/11/14 04:47:22;;;;;;;46.40;30.73;;;;;;;9.04;71.46;95638.47;4972089;28;20200;-80
2022/11/14 04:49:48;;;;;;;47.10;30.60;;;;;;;9.04;71.21;95645.31;4972196;28;20193;-79
2022/11/14 04:52:15;;;;;;;47.53;29.67;;;;;;;9.03;71.18;95641.16;4989071;28;20189;-79
2022/11/14 04:54:43;;;;;;;45.47;30.83;;;;;;;9.01;71.39;95627.66;4991477;28;20189;-79
2022/11/14 04:57:10;;;;;;;47.27;30.97;;;;;;;8.99;71.47;95634.63;4991842;28;20203;-79
2022/11/14 04:59:37;;;;;;;44.80;29.53;;;;;;;8.91;71.30;95614.72;4991902;28;20197;-81
2022/11/14 05:02:04;;;;;;;44.13;28.43;;;;;;;8.88;71.38;95617.50;4991636;28;20193;-82
2022/11/14 05:04:31;;;;;;;44.90;29.23;;;;;;;8.94;71.42;95626.47;4991905;28;20197;-81
2022/11/14 05:06:57;;;;;;;50.33;29.53;;;;;;;8.93;71.32;95624.81;4991866;28;20205;-79
2022/11/14 05:09:24;;;;;;;45.80;30.03;;;;;;;8.97;71.29;95634.72;4991944;28;20607;-78
2022/11/14 05:11:52;;;;;;;49.10;31.63;;;;;;;8.97;71.22;95641.56;4992630;28;20189;-79
2022/11/14 05:14:19;;;;;;;49.33;31.20;;;;;;;8.96;71.16;95645.84;4991134;28;20196;-79
2022/11/14 05:16:46;;;;;;;48.93;30.53;;;;;;;8.96;71.13;95643.28;4992711;28;20687;-77
2022/11/14 05:19:13;;;;;;;48.87;30.87;;;;;;;8.95;71.24;95654.44;4986707;28;20201;-78
2022/11/14 05:21:40;;;;;;;46.03;28.50;;;;;;;8.96;71.09;95657.78;4978413;28;20201;-81
2022/11/14 05:24:07;;;;;;;41.83;29.10;;;;;;;8.96;71.18;95655.22;5006308;28;20231;-81
2022/11/14 05:26:33;;;;;;;47.40;29.27;;;;;;;8.90;70.99;95646.28;5014529;28;20177;-78
2022/11/14 05:29:02;;;;;;;47.83;30.53;;;;;;;8.98;71.03;95654.22;5002033;28;20213;-81
2022/11/14 05:31:28;;;;;;;43.03;28.27;;;;;;;8.99;71.22;95660.94;4986607;28;20197;-80
2022/11/14 05:33:55;;;;;;;51.00;29.40;;;;;;;9.00;71.28;95657.47;4982521;28;20185;-77
2022/11/14 05:36:23;;;;;;;43.70;28.83;;;;;;;8.85;71.35;95635.56;4993610;28;20185;-80
2022/11/14 05:38:50;;;;;;;41.07;26.90;;;;;;;9.08;71.17;95662.06;4997219;28;20200;-82
2022/11/14 05:41:20;;;;;;;47.53;28.00;;;;;;;9.15;71.33;95654.78;4994654;28;20189;-82
2022/11/14 05:43:47;;;;;;;49.53;27.10;;;;;;;9.17;71.67;95646.13;4995401;28;20192;-82
2022/11/14 05:46:16;;;;;;;43.60;28.27;;;;;;;9.25;72.55;95658.34;5002103;28;20227;-82
2022/11/14 05:48:43;;;;;;;41.40;27.57;;;;;;;9.33;72.90;95652.72;4989211;28;20233;-84
2022/11/14 05:51:12;;;;;;;43.43;27.60;;;;;;;9.40;73.55;95657.28;4983238;28;20212;-81
2022/11/14 05:53:39;;;;;;;46.60;28.80;;;;;;;9.43;74.10;95657.06;4984529;28;20193;-83
2022/11/14 05:56:08;;;;;;;44.10;28.10;;;;;;;9.45;74.13;95651.84;4979629;28;20208;-83
2022/11/14 05:58:35;;;;;;;46.13;28.33;;;;;;;9.51;74.06;95662.47;4982802;28;20610;-81
2022/11/14 06:01:04;;;;;;;52.17;28.63;;;;;;;9.57;73.82;95655.28;4974656;28;20601;-82
2022/11/14 06:03:34;;;;;;;45.87;28.97;;;;;;;9.61;73.92;95662.63;4979425;28;20201;-82
2022/11/14 06:06:02;;;;;;;53.70;29.73;;;;;;;9.65;73.61;95658.94;4970845;28;20190;-82
2022/11/14 06:08:29;;;;;;;54.00;29.33;;;;;;;9.70;73.48;95667.09;4969945;28;20221;-82
2022/11/14 06:10:56;;;;;;;47.83;29.23;;;;;;;9.59;73.39;95641.50;4971865;28;20194;-81
2022/11/14 06:13:26;;;;;;;45.23;28.80;;;;;;;9.77;73.22;95668.28;4970698;28;20201;-85
2022/11/14 06:15:53;;;;;;;50.77;29.77;;;;;;;9.84;73.09;95673.78;4979188;28;20218;-79
2022/11/14 06:18:20;;;;;;;49.50;28.40;;;;;;;9.87;72.96;95676.13;4966107;28;20183;-81
2022/11/14 06:20:48;;;;;;;47.90;28.57;;;;;;;9.92;72.79;95680.88;4958095;29;20259;-82
2022/11/14 06:23:15;;;;;;;51.57;30.00;;;;;;;9.96;72.78;95680.56;4952067;29;20202;-79
2022/11/14 06:25:42;;;;;;;44.07;29.27;;;;;;;10.01;72.64;95677.69;4950433;29;20213;-82
2022/11/14 06:28:09;;;;;;;54.57;30.43;;;;;;;10.05;72.50;95673.97;4950519;29;20230;-83
2022/11/14 06:30:37;;;;;;;56.40;31.50;;;;;;;10.10;72.40;95677.00;4950538;29;20205;-79
2022/11/14 06:33:04;;;;;;;52.07;30.67;;;;;;;10.11;72.26;95671.00;4950257;29;20202;-81
2022/11/14 06:35:32;;;;;;;56.17;30.40;;;;;;;10.19;72.29;95680.66;4951412;29;20538;-79
2022/11/14 06:38:01;;;;;;;55.77;31.67;;;;;;;10.25;72.08;95675.13;4967312;28;20197;-79
2022/11/14 06:40:27;;;;;;;53.77;30.40;;;;;;;10.28;71.95;95675.75;4986310;28;20220;-78
2022/11/14 06:42:55;;;;;;;60.80;31.17;;;;;;;10.34;71.95;95673.66;4991890;28;20216;-81
2022/11/14 06:45:24;;;;;;;54.70;31.83;;;;;;;10.28;71.78;95655.28;4996264;28;20591;-88
2022/11/14 06:47:51;;;;;;;52.47;31.00;;;;;;;10.42;71.76;95664.50;4991417;28;20205;-84
2022/11/14 06:50:18;;;;;;;57.97;32.67;;;;;;;10.45;71.48;95660.91;4987744;28;20208;-79
2022/11/14 06:52:45;;;;;;;56.40;32.83;;;;;;;10.50;71.54;95667.31;4978416;28;20201;-85
2022/11/14 06:55:13;;;;;;;54.90;31.60;;;;;;;10.57;71.48;95664.28;4995151;28;20201;-81
2022/11/14 06:57:40;;;;;;;57.73;32.63;;;;;;;10.55;71.24;95654.19;4991651;28;20197;-83
2022/11/14 07:00:08;;;;;;;53.67;31.33;;;;;;;10.54;71.12;95645.69;4988214;28;20196;-80
2022/11/14 07:02:36;;;;;;;52.47;31.10;;;;;;;10.68;71.01;95662.56;4987181;28;20197;-81
2022/11/14 07:05:03;;;;;;;53.03;30.50;;;;;;;10.59;71.09;95634.31;4980987;28;20185;-82
2022/11/14 07:07:31;;;;;;;52.20;31.03;;;;;;;10.52;71.08;95618.59;4988023;28;20204;-82
2022/11/14 07:09:57;;;;;;;46.23;29.00;;;;;;;10.76;70.90;95649.22;4991075;28;20205;-81
2022/11/14 07:12:28;;;;;;;50.73;31.03;;;;;;;10.86;70.84;95655.25;4977898;28;20206;-78
2022/11/14 07:14:55;;;;;;;50.60;30.90;;;;;;;10.70;70.90;95624.06;4983789;28;20219;-83
2022/11/14 07:17:23;;;;;;;48.77;28.87;;;;;;;10.92;70.68;95653.97;4978529;28;20185;-82
2022/11/14 07:19:50;;;;;;;47.80;29.47;;;;;;;11.03;70.50;95661.66;5000707;28;20181;-86
2022/11/14 07:22:17;;;;;;;50.40;30.83;;;;;;;10.75;70.58;95617.69;4989266;28;20181;-85
2022/11/14 07:24:44;;;;;;;53.80;30.57;;;;;;;11.09;70.30;95652.69;4991953;28;20303;-82
2022/11/14 07:27:11;;;;;;;50.50;31.50;;;;;;;11.12;70.25;95647.34;4988189;28;20209;-83
2022/11/14 07:29:48;;;;;;;52.60;30.67;;;;;;;11.24;70.24;95667.69;4989442;28;20233;-82
2022/11/14 07:32:15;;;;;;;52.70;32.20;;;;;;;11.24;70.14;95657.47;4987016;28;20194;-84
2022/11/14 07:34:42;;;;;;;47.87;30.10;;;;;;;11.11;70.15;95631.19;4992107;28;20185;-78
2022/11/14 07:37:09;;;;;;;56.23;31.93;;;;;;;11.20;70.11;95627.09;4989609;28;20261;-89
2022/11/14 07:39:36;;;;;;;57.90;33.47;;;;;;;11.41;69.97;95652.78;4993903;28;20247;-84
2022/11/14 07:42:03;;;;;;;51.93;32.67;;;;;;;11.47;69.68;95648.00;5006365;28;20193;-81
2022/11/14 07:44:30;;;;;;;54.87;32.40;;;;;;;11.51;69.62;95646.81;5001698;28;20193;-81
2022/11/14 07:46:59;;;;;;;55.73;33.20;;;;;;;11.56;69.55;95649.03;5007708;28;20181;-87
2022/11/14 07:49:27;;;;;;;54.77;32.37;;;;;;;11.59;69.67;95643.66;5003116;28;20235;-85
2022/11/14 07:51:56;;;;;;;54.93;32.83;;;;;;;11.64;69.55;95648.44;5011685;28;20209;-87
2022/11/14 07:54:22;;;;;;;65.30;33.43;;;;;;;11.67;69.42;95651.56;5001139;28;20196;-81
2022/11/14 07:56:49;;;;;;;63.13;34.17;;;;;;;11.71;69.34;95647.81;5000140;28;20189;-83
2022/11/14 07:59:16;;;;;;;53.57;32.77;;;;;;;11.69;69.29;95630.94;5006541;28;20197;-77
2022/11/14 08:01:43;;;;;;;57.60;33.03;;;;;;;11.73;69.21;95637.44;5006194;28;20181;-81
2022/11/14 08:04:12;;;;;;;61.57;34.00;;;;;;;11.78;69.17;95637.88;5012729;28;20236;-80
2022/11/14 08:06:38;;;;;;;63.93;34.43;;;;;;;11.74;69.26;95629.66;5007964;28;20250;-86
2022/11/14 08:09:06;;;;;;;60.27;34.67;;;;;;;11.68;69.11;95606.25;5001993;28;20234;-81
2022/11/14 08:11:47;;;;;;;63.10;34.93;;;;;;;11.93;68.93;95636.72;5005702;28;20207;-84
2022/11/14 08:14:14;;;;;;;63.67;36.77;;;;;;;11.97;68.88;95645.78;5007264;28;20201;-82
2022/11/14 08:16:41;;;;;;;57.33;35.03;;;;;;;11.91;68.79;95627.50;5010854;28;20189;-88
2022/11/14 08:19:08;;;;;;;63.50;36.77;;;;;;;11.80;68.57;95600.16;5006560;28;20288;-84
2022/11/14 08:21:36;;;;;;;67.07;35.03;;;;;;;12.03;68.47;95632.47;5007068;28;20185;-85
2022/11/14 08:24:03;;;;;;;63.50;37.47;;;;;;;12.17;68.38;95641.59;4997231;28;20190;-84
2022/11/14 08:26:30;;;;;;;63.60;36.27;;;;;;;12.24;68.38;95636.81;4995981;28;20201;-85
2022/11/14 08:28:58;;;;;;;67.90;37.83;;;;;;;11.97;68.21;95586.84;4999274;28;20229;-91
2022/11/14 08:31:25;;;;;;;70.43;37.43;;;;;;;12.38;68.12;95638.25;4994477;28;20200;-90
2022/11/14 08:33:52;;;;;;;63.57;37.00;;;;;;;12.44;67.81;95635.19;5001276;28;20204;-90
2022/11/14 08:36:19;;;;;;;62.53;37.47;;;;;;;12.51;67.97;95642.25;5001441;28;20194;-82
2022/11/14 08:38:48;;;;;;;61.93;35.73;;;;;;;12.59;67.66;95636.47;5015763;28;20208;-81
2022/11/14 08:41:14;;;;;;;59.17;36.27;;;;;;;12.56;67.66;95616.19;4998600;28;20216;-81
2022/11/14 08:43:46;;;;;;;61.00;38.30;;;;;;;12.72;67.60;95628.59;5001528;28;20197;-81
2022/11/14 08:46:13;;;;;;;60.93;35.70;;;;;;;12.79;67.33;95627.13;4991540;28;20276;-82
2022/11/14 08:48:40;;;;;;;65.80;37.87;;;;;;;12.94;67.16;95633.53;5008693;28;20220;-82
2022/11/14 08:51:07;;;;;;;58.87;36.40;;;;;;;13.03;66.75;95625.06;4998831;28;20200;-79
2022/11/14 08:53:35;;;;;;;62.23;38.73;;;;;;;13.14;66.94;95625.94;5002903;28;20190;-81
2022/11/14 08:56:03;;;;;;;56.63;36.03;;;;;;;13.17;66.48;95616.22;5010804;28;20200;-80
2022/11/14 08:58:30;;;;;;;65.53;41.07;;;;;;;13.32;66.52;95616.69;5013233;28;20197;-80
2022/11/14 09:01:01;;;;;;;59.70;37.30;;;;;;;13.45;66.30;95612.09;5010656;28;20208;-82
2022/11/14 09:03:28;;;;;;;58.97;36.77;;;;;;;13.57;66.27;95617.94;4996966;28;20193;-83
2022/11/14 09:05:55;;;;;;;58.90;36.27;;;;;;;13.57;65.98;95594.81;4997731;28;20224;-84
2022/11/14 09:08:23;;;;;;;55.47;36.47;;;;;;;13.73;65.81;95596.84;4993942;28;20459;-81
2022/11/14 09:10:50;;;;;;;59.80;36.77;;;;;;;13.86;65.64;95597.41;4988282;28;20240;-86
2022/11/14 09:13:18;;;;;;;62.13;37.07;;;;;;;13.97;65.61;95599.03;4981690;28;20202;-85
2022/11/14 09:15:46;;;;;;;55.30;35.97;;;;;;;13.98;65.26;95588.59;5005520;28;20195;-87
2022/11/14 09:18:14;;;;;;;58.20;36.87;;;;;;;14.13;65.06;95594.13;5013561;28;20211;-83
2022/11/14 09:20:41;;;;;;;58.27;37.20;;;;;;;14.09;64.94;95574.78;5013529;28;20251;-84
2022/11/14 09:23:09;;;;;;;58.90;38.13;;;;;;;14.08;64.96;95562.88;5011896;28;20193;-83
2022/11/14 09:25:37;;;;;;;60.83;38.30;;;;;;;14.25;64.47;95585.31;5011299;28;20193;-82
2022/11/14 09:28:06;;;;;;;53.70;35.93;;;;;;;14.26;64.50;95589.50;5003165;28;20229;-81
2022/11/14 09:30:37;;;;;;;54.37;37.67;;;;;;;14.26;64.58;95578.41;4997533;28;20229;-90
2022/11/14 09:33:04;;;;;;;52.47;34.87;;;;;;;14.23;64.45;95571.78;4993468;28;20181;-83
2022/11/14 09:35:32;;;;;;;53.63;34.93;;;;;;;14.38;64.17;95581.63;4999636;28;20284;-86
2022/11/14 09:38:00;;;;;;;55.67;35.90;;;;;;;14.39;64.00;95573.78;4999586;28;20200;-83
2022/11/14 09:40:27;;;;;;;55.93;35.67;;;;;;;14.52;63.59;95573.50;4999369;28;20235;-87
2022/11/14 09:43:06;;;;;;;54.27;35.47;;;;;;;14.49;63.43;95556.56;4994403;28;20282;-87
2022/11/14 09:45:36;;;;;;;52.07;35.53;;;;;;;14.64;63.41;95571.59;4991602;28;20193;-85
2022/11/14 09:48:09;;;;;;;52.33;34.70;;;;;;;14.68;63.07;95576.31;4992582;28;20188;-81
2022/11/14 09:50:42;;;;;;;52.17;36.00;;;;;;;14.57;62.93;95540.44;5000369;28;20213;-90
2022/11/14 09:53:17;;;;;;;60.57;37.17;;;;;;;14.74;62.94;95560.28;4990170;28;20189;-85
2022/11/14 09:55:44;;;;;;;51.80;33.83;;;;;;;14.77;62.76;95557.44;4995248;28;20192;-88
2022/11/14 09:58:16;;;;;;;50.00;33.40;;;;;;;14.81;62.47;95550.25;4978988;28;20185;-89
2022/11/14 10:00:51;;;;;;;52.57;35.47;;;;;;;14.70;62.23;95524.66;5002237;28;20654;-88
2022/11/14 10:03:27;;;;;;;52.93;35.40;;;;;;;14.74;62.08;95521.66;4987534;28;20194;-85
2022/11/14 10:06:09;;;;;;;52.33;34.57;;;;;;;14.87;62.04;95536.78;4998235;28;20198;-84
2022/11/14 10:09:00;;;;;;;50.60;33.63;;;;;;;14.97;61.81;95541.88;4999912;28;20192;-80
2022/11/14 10:11:35;;;;;;;47.33;34.27;;;;;;;15.00;61.80;95531.28;4995089;28;20204;-84
2022/11/14 10:14:28;;;;;;;48.73;33.93;;;;;;;15.03;61.56;95523.28;4989444;28;20207;-85
2022/11/14 10:17:09;;;;;;;47.30;33.50;;;;;;;15.08;61.62;95522.84;4990040;28;20199;-84
2022/11/14 10:19:46;;;;;;;46.43;33.57;;;;;;;15.08;61.58;95515.13;4994445;28;20204;-86
2022/11/14 10:22:27;;;;;;;46.47;32.77;;;;;;;15.16;61.40;95522.94;4993618;28;20281;-82
2022/11/14 10:25:17;;;;;;;50.40;33.33;;;;;;;15.19;61.22;95515.69;4991128;28;20181;-79
2022/11/14 10:27:55;;;;;;;49.77;33.17;;;;;;;15.24;61.23;95510.09;4994763;28;20197;-82
2022/11/14 10:30:39;;;;;;;47.03;31.90;;;;;;;15.28;61.11;95506.28;4989063;28;20567;-85
2022/11/14 10:33:28;;;;;;;50.87;34.07;;;;;;;15.21;60.89;95494.97;5003277;28;20227;-86
2022/11/14 10:36:03;;;;;;;48.63;31.23;;;;;;;15.32;61.06;95490.38;4995367;28;20243;-81
2022/11/14 10:38:35;;;;;;;47.57;31.23;;;;;;;15.37;60.81;95489.97;4985243;28;20207;-86
2022/11/14 10:41:07;;;;;;;41.10;31.60;;;;;;;15.24;60.90;95462.00;4994367;28;20229;-87
2022/11/14 10:43:39;;;;;;;44.50;31.53;;;;;;;15.45;60.75;95487.44;5006448;28;20193;-85
2022/11/14 10:46:26;;;;;;;47.57;33.37;;;;;;;15.22;60.63;95443.28;4999285;28;20208;-88
2022/11/14 10:48:54;;;;;;;46.90;31.53;;;;;;;15.52;60.60;95487.66;5000878;28;20582;-84
2022/11/14 10:51:28;;;;;;;45.40;33.63;;;;;;;15.56;60.47;95478.69;4996686;28;20521;-84
2022/11/14 10:53:59;;;;;;;48.90;32.63;;;;;;;15.59;60.40;95483.53;5000007;28;20193;-82
2022/11/14 10:56:27;;;;;;;47.57;32.70;;;;;;;15.61;60.21;95479.03;5000808;28;20209;-82
2022/11/14 10:58:54;;;;;;;44.40;32.70;;;;;;;15.64;60.29;95477.94;5005848;28;20203;-86
2022/11/14 11:01:36;;;;;;;52.33;34.83;;;;;;;15.67;60.04;95475.06;5000366;28;20265;-83
2022/11/14 11:04:26;;;;;;;54.10;33.27;;;;;;;15.63;59.93;95455.66;4986070;28;20196;-84
2022/11/14 11:06:56;;;;;;;46.83;33.27;;;;;;;15.69;60.07;95460.28;5002430;28;20199;-83
2022/11/14 11:12:17;;;;;;;48.17;32.87;;;;;;;15.74;59.77;95460.63;4997486;28;20202;-83
2022/11/14 11:14:45;;;;;;;44.37;32.37;;;;;;;15.47;59.90;95404.81;5002534;28;20193;-86
2022/11/14 11:17:21;;;;;;;48.63;32.43;;;;;;;15.79;59.83;95459.22;5006922;28;20192;-84
2022/11/14 11:19:50;;;;;;;45.80;31.90;;;;;;;15.62;59.60;95420.53;5007969;28;20188;-84
2022/11/14 11:22:36;;;;;;;45.53;32.03;;;;;;;15.85;59.72;95460.41;5010753;28;20181;-82
2022/11/14 11:25:23;;;;;;;47.37;32.77;;;;;;;15.77;59.60;95437.94;5005460;28;20185;-83
2022/11/14 11:28:04;;;;;;;47.03;33.73;;;;;;;15.84;59.58;95435.53;4997158;28;20182;-83
2022/11/14 11:30:31;;;;;;;48.40;34.00;;;;;;;15.91;59.58;95444.31;5004833;28;20216;-80
2022/11/14 11:33:15;;;;;;;46.67;33.93;;;;;;;15.93;59.40;95447.56;4993825;28;20201;-84